Time;durP1;ratioP1;P1;durP2;ratioP2;P2;SDS_P1;SDS_P2;PMS_P1;PMS_P2;Temp;Humidity;BMP_temperature;BMP_pressure;BME280_temperature;BME280_humidity;BME280_pressure;Samples;Min_cycle;Max_cycle;Signal;HPM_P1;HPM_P2
2023/08/01 00:00:51;;;;;;;10.53;5.27;;;16.40;99.90;;;;;;5094690;28;20048;-72
2023/08/01 00:03:17;;;;;;;11.27;5.20;;;16.50;99.90;;;;;;5094008;28;20523;-71
2023/08/01 00:05:44;;;;;;;11.80;5.27;;;16.50;99.90;;;;;;5094524;28;20044;-72
2023/08/01 00:08:13;;;;;;;12.63;4.90;;;16.50;99.90;;;;;;5094377;28;20060;-72
2023/08/01 00:10:40;;;;;;;12.33;4.77;;;16.50;99.90;;;;;;5094520;28;20392;-72
2023/08/01 00:13:06;;;;;;;11.30;5.20;;;16.40;99.90;;;;;;5093076;28;20048;-72
2023/08/01 00:15:32;;;;;;;9.77;4.30;;;16.50;99.90;;;;;;5094078;28;20510;-72
2023/08/01 00:17:58;;;;;;;9.20;4.93;;;16.50;99.90;;;;;;5094039;28;20048;-72
2023/08/01 00:20:23;;;;;;;11.67;5.37;;;16.50;99.90;;;;;;5094337;28;20044;-72
2023/08/01 00:22:49;;;;;;;12.60;4.80;;;16.40;99.90;;;;;;5094261;28;20510;-72
2023/08/01 00:25:15;;;;;;;12.57;5.40;;;16.40;99.90;;;;;;5093859;28;20051;-72
2023/08/01 00:27:40;;;;;;;9.53;4.90;;;16.40;99.90;;;;;;5093696;28;20047;-72
2023/08/01 00:30:08;;;;;;;11.57;4.57;;;16.40;99.90;;;;;;5093812;28;20048;-72
2023/08/01 00:32:34;;;;;;;11.17;4.73;;;16.40;99.90;;;;;;5094069;28;20051;-72
2023/08/01 00:35:00;;;;;;;12.67;5.13;;;16.40;99.90;;;;;;5093831;28;20044;-72
2023/08/01 00:37:25;;;;;;;13.50;5.53;;;16.40;99.90;;;;;;5094086;28;20040;-72
2023/08/01 00:39:51;;;;;;;12.90;5.10;;;16.40;99.90;;;;;;5092736;28;20082;-72
2023/08/01 00:42:17;;;;;;;10.83;4.67;;;16.40;99.90;;;;;;5092631;28;20384;-72
2023/08/01 00:44:43;;;;;;;11.90;5.30;;;16.30;99.90;;;;;;5092844;28;20052;-72
2023/08/01 00:47:09;;;;;;;10.17;5.23;;;16.30;99.90;;;;;;5093540;28;20399;-72
2023/08/01 00:49:35;;;;;;;9.97;4.60;;;16.20;99.90;;;;;;5092756;28;20460;-72
2023/08/01 00:52:01;;;;;;;8.93;4.63;;;16.30;99.90;;;;;;5075425;28;20117;-74
2023/08/01 00:54:27;;;;;;;12.33;4.77;;;16.20;99.90;;;;;;5093351;28;20047;-72
2023/08/01 00:56:53;;;;;;;12.73;5.10;;;16.20;99.90;;;;;;5091509;28;20044;-72
2023/08/01 00:59:18;;;;;;;12.83;5.07;;;16.20;99.90;;;;;;5093288;28;20040;-72
2023/08/01 01:01:44;;;;;;;11.20;4.80;;;16.10;99.90;;;;;;5092261;28;20450;-72
2023/08/01 01:04:10;;;;;;;8.87;4.47;;;16.10;99.90;;;;;;5092084;28;20095;-72
2023/08/01 01:06:51;;;;;;;13.20;5.03;;;16.10;99.90;;;;;;5093229;28;20060;-72
2023/08/01 01:09:18;;;;;;;12.60;4.63;;;16.00;99.90;;;;;;5058887;28;20431;-72
2023/08/01 01:11:45;;;;;;;11.87;5.43;;;16.00;99.90;;;;;;5092389;28;20059;-72
2023/08/01 01:14:10;;;;;;;9.83;4.43;;;16.00;99.90;;;;;;5092076;28;20361;-72
2023/08/01 01:16:36;;;;;;;10.83;3.93;;;16.00;99.90;;;;;;5093309;28;20086;-73
2023/08/01 01:19:07;;;;;;;10.07;4.80;;;16.00;99.90;;;;;;5093307;28;20044;-72
2023/08/01 01:21:35;;;;;;;10.77;4.20;;;16.00;99.90;;;;;;5093328;28;20045;-73
2023/08/01 01:24:04;;;;;;;12.30;5.03;;;16.00;99.90;;;;;;5093183;28;20122;-72
2023/08/01 01:26:31;;;;;;;12.53;5.27;;;16.00;99.90;;;;;;5093312;28;20044;-72
2023/08/01 01:28:58;;;;;;;9.00;4.47;;;16.00;99.90;;;;;;5093176;28;20055;-73
2023/08/01 01:31:24;;;;;;;9.77;3.93;;;16.00;99.90;;;;;;5091944;28;20123;-71
2023/08/01 01:33:50;;;;;;;7.93;4.30;;;15.90;99.90;;;;;;5075309;28;20036;-71
2023/08/01 01:36:16;;;;;;;11.63;4.70;;;16.00;99.90;;;;;;5091653;28;20098;-71
2023/08/01 01:38:41;;;;;;;12.60;4.30;;;16.00;99.90;;;;;;5093029;28;20436;-71
2023/08/01 01:41:07;;;;;;;9.67;4.73;;;15.90;99.90;;;;;;5091755;28;20130;-72
2023/08/01 01:43:33;;;;;;;8.27;4.03;;;15.90;99.90;;;;;;5092009;28;20059;-71
2023/08/01 01:45:58;;;;;;;9.70;4.03;;;15.90;99.90;;;;;;5075116;28;20086;-71
2023/08/01 01:48:24;;;;;;;9.30;4.13;;;15.80;99.90;;;;;;5091502;28;20047;-71
2023/08/01 01:50:50;;;;;;;9.20;4.57;;;15.80;99.90;;;;;;5092934;28;20047;-71
2023/08/01 01:53:15;;;;;;;8.53;3.97;;;15.70;99.90;;;;;;5092926;28;20046;-71
2023/08/01 01:55:41;;;;;;;8.37;4.30;;;15.70;99.90;;;;;;5093365;28;20464;-71
2023/08/01 01:58:07;;;;;;;12.60;5.07;;;15.70;99.90;;;;;;5092882;28;20048;-73
2023/08/01 02:00:33;;;;;;;9.70;4.13;;;15.70;99.90;;;;;;5091849;28;20455;-71
2023/08/01 02:02:59;;;;;;;10.90;4.43;;;15.70;99.90;;;;;;5091857;28;20452;-71
2023/08/01 02:05:25;;;;;;;10.63;4.23;;;15.60;99.90;;;;;;5092147;28;20044;-71
2023/08/01 02:07:51;;;;;;;8.30;4.03;;;15.60;99.90;;;;;;5093414;28;20105;-72
2023/08/01 02:10:17;;;;;;;9.00;4.63;;;15.60;99.90;;;;;;5095575;28;20105;-71
2023/08/01 02:12:43;;;;;;;8.27;4.30;;;15.60;99.90;;;;;;5096808;28;20054;-71
2023/08/01 02:15:09;;;;;;;11.57;4.47;;;15.60;99.90;;;;;;5096937;28;20373;-71
2023/08/01 02:17:34;;;;;;;10.93;4.30;;;15.60;99.90;;;;;;5096521;28;20044;-71
2023/08/01 02:20:00;;;;;;;9.47;4.77;;;15.60;99.90;;;;;;5095817;28;20135;-71
2023/08/01 02:22:26;;;;;;;15.87;5.27;;;15.60;99.90;;;;;;5094986;28;20052;-71
2023/08/01 02:24:52;;;;;;;11.17;5.23;;;15.60;99.90;;;;;;5096518;28;20086;-71
2023/08/01 02:27:18;;;;;;;13.17;5.13;;;15.70;99.90;;;;;;5094920;28;20101;-71
2023/08/01 02:29:44;;;;;;;12.83;5.03;;;15.60;99.90;;;;;;5095273;28;20056;-71
2023/08/01 02:32:09;;;;;;;13.03;5.40;;;15.70;99.90;;;;;;5096279;28;20047;-71
2023/08/01 02:34:35;;;;;;;13.53;5.23;;;15.70;99.90;;;;;;5094769;28;20051;-71
2023/08/01 02:37:01;;;;;;;13.47;5.73;;;15.80;99.90;;;;;;5095169;28;20079;-71
2023/08/01 02:39:27;;;;;;;11.97;5.20;;;15.80;99.90;;;;;;5096021;28;20134;-71
2023/08/01 02:41:52;;;;;;;12.97;6.27;;;15.80;99.90;;;;;;5096200;28;20058;-70
2023/08/01 02:44:18;;;;;;;13.20;6.10;;;15.90;99.90;;;;;;5095570;28;20044;-71
2023/08/01 02:46:43;;;;;;;12.27;5.93;;;15.80;99.90;;;;;;5095282;28;20044;-70
2023/08/01 02:49:09;;;;;;;12.20;5.83;;;15.80;99.90;;;;;;5096054;28;20048;-70
2023/08/01 02:51:35;;;;;;;11.43;5.10;;;15.90;99.90;;;;;;5095745;28;20047;-70
2023/08/01 02:54:00;;;;;;;12.60;5.70;;;15.80;99.90;;;;;;5096260;28;20139;-71
2023/08/01 02:56:27;;;;;;;12.33;4.17;;;15.80;99.90;;;;;;5095841;28;20542;-71
2023/08/01 02:58:55;;;;;;;11.43;4.50;;;15.90;99.90;;;;;;5095766;28;20108;-71
2023/08/01 03:01:20;;;;;;;8.80;4.07;;;15.80;99.90;;;;;;5095572;28;20052;-70
2023/08/01 03:03:46;;;;;;;11.63;4.23;;;15.80;99.90;;;;;;5095805;28;20159;-71
2023/08/01 03:06:12;;;;;;;11.30;3.50;;;15.80;99.90;;;;;;5095468;28;20491;-70
2023/08/01 03:08:38;;;;;;;10.07;3.50;;;15.80;99.90;;;;;;5094223;28;20193;-70
2023/08/01 03:11:04;;;;;;;10.27;3.33;;;15.80;99.90;;;;;;5095696;28;20127;-71
2023/08/01 03:13:30;;;;;;;9.97;3.57;;;15.80;99.90;;;;;;5094107;28;20055;-70
2023/08/01 03:15:56;;;;;;;11.13;3.00;;;15.80;99.90;;;;;;5095599;28;20040;-70
2023/08/01 03:18:22;;;;;;;10.67;3.20;;;15.80;99.90;;;;;;5095285;28;20051;-71
2023/08/01 03:20:47;;;;;;;9.70;3.27;;;15.80;99.90;;;;;;5094816;28;20048;-71
2023/08/01 03:23:13;;;;;;;11.30;2.97;;;15.80;99.90;;;;;;5095502;28;20044;-71
2023/08/01 03:25:39;;;;;;;13.07;3.17;;;15.80;99.90;;;;;;5095133;28;20043;-71
2023/08/01 03:28:05;;;;;;;10.77;2.77;;;15.80;99.90;;;;;;5095390;28;20475;-70
2023/08/01 03:30:34;;;;;;;11.70;3.57;;;15.80;99.90;;;;;;5095056;28;20131;-71
2023/08/01 03:33:02;;;;;;;8.53;2.80;;;15.70;99.90;;;;;;5095207;28;20044;-71
2023/08/01 03:35:28;;;;;;;9.93;2.83;;;15.70;99.90;;;;;;5094081;28;20059;-71
2023/08/01 03:37:54;;;;;;;12.13;2.60;;;15.70;99.90;;;;;;5095154;28;20480;-72
2023/08/01 03:40:19;;;;;;;10.03;2.87;;;15.70;99.90;;;;;;5077034;28;20105;-74
2023/08/01 03:42:45;;;;;;;10.70;2.77;;;15.70;99.90;;;;;;5095140;28;20148;-71
2023/08/01 03:45:11;;;;;;;11.37;3.53;;;15.70;99.90;;;;;;5095036;28;20460;-71
2023/08/01 03:47:37;;;;;;;11.83;2.83;;;15.70;99.90;;;;;;5093195;28;20066;-71
2023/08/01 03:50:03;;;;;;;10.37;2.57;;;15.70;99.90;;;;;;5093790;28;20040;-71
2023/08/01 03:52:29;;;;;;;7.43;2.37;;;15.70;99.90;;;;;;5094592;28;20154;-71
2023/08/01 03:54:55;;;;;;;10.40;2.30;;;15.60;99.90;;;;;;5094984;28;20107;-71
2023/08/01 03:57:21;;;;;;;7.03;2.00;;;15.60;99.90;;;;;;5094632;28;20101;-74
2023/08/01 03:59:47;;;;;;;8.80;2.40;;;15.60;99.90;;;;;;5094750;28;20116;-72
2023/08/01 04:02:13;;;;;;;11.33;2.40;;;15.60;99.90;;;;;;5094392;28;20052;-72
2023/08/01 04:04:38;;;;;;;9.43;2.37;;;15.60;99.90;;;;;;5094313;28;20154;-72
2023/08/01 04:07:04;;;;;;;5.87;1.80;;;15.60;99.90;;;;;;5094417;28;20051;-72
2023/08/01 04:09:30;;;;;;;5.73;1.90;;;15.60;99.90;;;;;;5094328;28;20044;-72
2023/08/01 04:11:56;;;;;;;6.60;2.10;;;15.60;99.90;;;;;;5093309;28;20055;-72
2023/08/01 04:14:22;;;;;;;8.13;1.90;;;15.60;99.90;;;;;;5094581;28;20174;-72
2023/08/01 04:16:48;;;;;;;7.13;1.90;;;15.60;99.90;;;;;;5093687;28;20504;-72
2023/08/01 04:19:14;;;;;;;7.33;2.13;;;15.60;99.90;;;;;;5093318;28;20051;-72
2023/08/01 04:21:40;;;;;;;7.07;2.13;;;15.50;99.90;;;;;;5093981;28;20127;-72
2023/08/01 04:24:05;;;;;;;6.30;2.20;;;15.50;99.90;;;;;;5094484;28;20097;-72
2023/08/01 04:26:31;;;;;;;9.73;2.00;;;15.60;99.90;;;;;;5093848;28;20568;-72
2023/08/01 04:28:57;;;;;;;6.37;2.20;;;15.60;99.90;;;;;;5094062;28;20058;-73
2023/08/01 04:31:22;;;;;;;5.17;2.00;;;15.60;99.90;;;;;;5093145;28;20044;-72
2023/08/01 04:33:48;;;;;;;6.77;2.20;;;15.60;99.90;;;;;;5093675;28;20082;-72
2023/08/01 04:36:14;;;;;;;6.37;2.00;;;15.70;99.90;;;;;;5094034;28;20484;-71
2023/08/01 04:38:40;;;;;;;6.60;2.07;;;15.80;99.90;;;;;;5092438;28;20101;-71
2023/08/01 04:41:06;;;;;;;5.53;2.07;;;15.80;99.90;;;;;;5093968;28;20044;-71
2023/08/01 04:43:32;;;;;;;6.80;1.80;;;15.80;99.90;;;;;;5093721;28;20542;-71
2023/08/01 04:45:57;;;;;;;5.37;1.80;;;15.80;99.90;;;;;;5092631;28;20046;-71
2023/08/01 04:48:23;;;;;;;11.57;2.50;;;15.80;99.90;;;;;;5092782;28;20048;-71
2023/08/01 04:50:48;;;;;;;6.93;2.27;;;15.80;99.90;;;;;;5093449;28;20039;-71
2023/08/01 04:53:14;;;;;;;7.13;2.77;;;15.80;99.90;;;;;;5093723;28;20141;-71
2023/08/01 04:55:40;;;;;;;7.20;2.53;;;15.80;99.90;;;;;;5093376;28;20051;-71
2023/08/01 04:58:06;;;;;;;8.50;3.00;;;15.80;99.90;;;;;;5093604;28;20072;-71
2023/08/01 05:00:32;;;;;;;9.47;3.00;;;15.70;99.90;;;;;;5093372;28;20140;-72
2023/08/01 05:02:57;;;;;;;9.47;3.03;;;15.80;99.90;;;;;;5075397;28;20055;-71
2023/08/01 05:05:23;;;;;;;10.10;3.40;;;15.80;99.90;;;;;;5093322;28;20080;-71
2023/08/01 05:07:48;;;;;;;9.50;3.10;;;15.80;99.90;;;;;;5092705;28;20056;-72
2023/08/01 05:10:14;;;;;;;10.20;3.40;;;15.80;99.90;;;;;;5092564;28;20545;-71
2023/08/01 05:12:40;;;;;;;11.20;3.60;;;15.80;99.90;;;;;;5093180;28;20500;-72
2023/08/01 05:15:06;;;;;;;9.77;3.63;;;15.80;99.90;;;;;;5092239;28;20377;-71
2023/08/01 05:17:32;;;;;;;11.70;4.43;;;15.80;99.90;;;;;;5093001;28;20079;-72
2023/08/01 05:19:58;;;;;;;6.73;3.03;;;15.80;99.90;;;;;;5093482;28;20152;-73
2023/08/01 05:22:23;;;;;;;6.90;3.00;;;15.80;99.90;;;;;;5093429;28;20048;-72
2023/08/01 05:24:49;;;;;;;8.37;3.07;;;15.80;99.90;;;;;;5092834;28;20048;-73
2023/08/01 05:27:15;;;;;;;8.70;3.30;;;15.80;99.90;;;;;;5075322;28;20119;-73
2023/08/01 05:29:40;;;;;;;10.67;3.93;;;15.80;99.90;;;;;;5092137;28;20040;-73
2023/08/01 05:32:06;;;;;;;7.17;3.20;;;15.90;99.90;;;;;;5093246;28;20036;-70
2023/08/01 05:34:32;;;;;;;9.23;3.40;;;15.80;99.90;;;;;;5093122;28;20051;-73
2023/08/01 05:36:58;;;;;;;9.67;2.93;;;15.80;99.90;;;;;;5092861;28;20541;-70
2023/08/01 05:39:24;;;;;;;8.60;3.00;;;15.80;99.90;;;;;;5093192;28;20044;-70
2023/08/01 05:41:50;;;;;;;10.77;3.07;;;15.80;99.90;;;;;;5092592;28;20067;-72
2023/08/01 05:44:16;;;;;;;7.37;2.40;;;15.70;99.90;;;;;;5096911;28;20104;-72
2023/08/01 05:46:42;;;;;;;8.77;2.40;;;15.70;99.90;;;;;;5097048;28;20391;-73
2023/08/01 05:49:07;;;;;;;9.33;2.43;;;15.70;99.90;;;;;;5097468;28;20063;-72
2023/08/01 05:51:33;;;;;;;8.00;2.57;;;15.60;99.90;;;;;;5096134;28;20052;-73
2023/08/01 05:53:59;;;;;;;7.40;2.17;;;15.60;99.90;;;;;;5096907;28;20048;-73
2023/08/01 05:56:24;;;;;;;8.30;2.43;;;15.60;99.90;;;;;;5097127;28;20047;-72
2023/08/01 05:58:50;;;;;;;6.67;2.20;;;15.60;99.90;;;;;;5095804;28;20079;-73
2023/08/01 06:01:16;;;;;;;7.73;2.50;;;15.60;99.90;;;;;;5096188;28;20119;-72
2023/08/01 06:03:42;;;;;;;10.40;2.87;;;15.60;99.90;;;;;;5096793;28;20395;-73
2023/08/01 06:06:08;;;;;;;11.80;2.80;;;15.60;99.90;;;;;;5096589;28;20044;-72
2023/08/01 06:08:34;;;;;;;8.63;2.30;;;15.60;99.90;;;;;;5097026;28;20063;-72
2023/08/01 06:11:00;;;;;;;9.47;2.30;;;15.70;99.90;;;;;;5096654;28;20044;-72
2023/08/01 06:13:25;;;;;;;13.27;2.47;;;15.70;99.90;;;;;;5095784;28;20133;-72
2023/08/01 06:15:51;;;;;;;11.90;2.77;;;15.70;99.90;;;;;;5095249;28;20097;-72
2023/08/01 06:18:17;;;;;;;10.53;2.63;;;15.80;99.90;;;;;;5078889;28;20048;-71
2023/08/01 06:20:43;;;;;;;9.40;2.07;;;15.90;99.90;;;;;;5096485;28;20043;-72
2023/08/01 06:23:08;;;;;;;8.20;1.93;;;15.90;99.90;;;;;;5096969;28;20492;-72
2023/08/01 06:25:34;;;;;;;9.10;2.00;;;16.00;99.90;;;;;;5096528;28;20080;-72
2023/08/01 06:28:00;;;;;;;10.20;2.10;;;16.10;99.90;;;;;;5096326;28;20047;-72
2023/08/01 06:30:26;;;;;;;9.07;2.20;;;16.20;99.90;;;;;;5096515;28;20052;-72
2023/08/01 06:32:51;;;;;;;12.27;1.97;;;16.30;99.90;;;;;;5096268;28;20503;-72
2023/08/01 06:35:17;;;;;;;6.77;1.53;;;16.40;99.90;;;;;;5096442;28;20500;-72
2023/08/01 06:37:43;;;;;;;9.97;2.30;;;16.40;99.90;;;;;;5096160;28;20044;-72
2023/08/01 06:40:09;;;;;;;11.03;2.03;;;16.40;99.90;;;;;;5096359;28;20551;-72
2023/08/01 06:42:35;;;;;;;12.03;2.00;;;16.40;99.90;;;;;;5096283;28;20048;-72
2023/08/01 06:45:01;;;;;;;11.17;1.90;;;16.40;99.90;;;;;;5095949;28;20238;-72
2023/08/01 06:47:26;;;;;;;8.43;1.57;;;16.30;99.90;;;;;;5094903;28;20151;-71
2023/08/01 06:49:52;;;;;;;8.67;1.83;;;16.30;99.90;;;;;;5095931;28;20046;-71
2023/08/01 06:52:17;;;;;;;13.23;2.00;;;16.30;99.90;;;;;;5096256;28;20129;-71
2023/08/01 06:54:43;;;;;;;12.47;2.20;;;16.30;99.90;;;;;;5092336;28;20086;-72
2023/08/01 06:57:09;;;;;;;10.27;1.90;;;16.20;99.90;;;;;;5094468;28;20066;-71
2023/08/01 06:59:35;;;;;;;9.80;2.27;;;16.20;99.90;;;;;;5095525;28;20052;-71
2023/08/01 07:02:01;;;;;;;7.90;1.70;;;16.20;99.90;;;;;;5095302;28;20127;-70
2023/08/01 07:04:27;;;;;;;11.47;1.77;;;16.30;99.90;;;;;;5096099;28;20109;-71
2023/08/01 07:06:52;;;;;;;10.70;2.20;;;16.20;99.90;;;;;;5095352;28;20414;-72
2023/08/01 07:09:19;;;;;;;6.90;1.50;;;16.20;99.90;;;;;;5095819;28;20048;-71
2023/08/01 07:11:44;;;;;;;8.90;2.03;;;16.20;99.90;;;;;;5094262;28;20199;-75
2023/08/01 07:14:10;;;;;;;8.00;1.80;;;16.20;99.90;;;;;;5095808;28;20080;-72
2023/08/01 07:16:36;;;;;;;10.43;2.00;;;16.10;99.90;;;;;;5095421;28;20511;-72
2023/08/01 07:19:02;;;;;;;8.93;2.27;;;16.10;99.90;;;;;;5095267;28;20047;-73
2023/08/01 07:21:28;;;;;;;7.43;2.20;;;16.10;99.90;;;;;;5095616;28;20056;-72
2023/08/01 07:23:54;;;;;;;5.53;2.40;;;16.20;99.90;;;;;;5094293;28;20056;-72
2023/08/01 07:26:20;;;;;;;8.47;1.93;;;16.20;99.90;;;;;;5095314;28;20047;-72
2023/08/01 07:28:46;;;;;;;12.00;2.67;;;16.20;99.90;;;;;;5095260;28;20048;-76
2023/08/01 07:31:11;;;;;;;9.13;2.03;;;16.20;99.90;;;;;;5094332;28;20052;-72
2023/08/01 07:33:37;;;;;;;13.33;2.10;;;16.20;99.90;;;;;;5095269;28;20044;-71
2023/08/01 07:36:04;;;;;;;8.97;2.50;;;16.20;99.90;;;;;;5094049;28;20052;-72
2023/08/01 07:38:33;;;;;;;10.00;2.50;;;16.30;99.90;;;;;;5095217;28;20051;-71
2023/08/01 07:41:04;;;;;;;9.27;2.33;;;16.30;99.90;;;;;;5094844;28;20047;-71
2023/08/01 07:43:29;;;;;;;9.90;2.30;;;16.30;99.90;;;;;;5095196;28;20530;-71
2023/08/01 07:45:56;;;;;;;10.00;2.30;;;16.20;99.90;;;;;;5093763;28;20048;-72
2023/08/01 07:48:22;;;;;;;7.90;2.10;;;16.20;99.90;;;;;;5095029;28;20044;-72
2023/08/01 07:50:48;;;;;;;6.53;2.23;;;16.20;99.90;;;;;;5095093;28;20553;-73
2023/08/01 07:53:13;;;;;;;10.27;2.00;;;16.10;99.90;;;;;;5094863;28;20048;-73
2023/08/01 07:55:39;;;;;;;10.57;1.80;;;16.10;99.90;;;;;;5095234;28;20048;-72
2023/08/01 07:58:05;;;;;;;7.03;2.00;;;16.00;99.90;;;;;;5094598;28;20387;-72
2023/08/01 08:00:31;;;;;;;10.30;2.80;;;16.00;99.90;;;;;;5094820;28;20086;-72
2023/08/01 08:02:57;;;;;;;6.87;1.73;;;16.00;99.90;;;;;;5094374;28;20205;-72
2023/08/01 08:05:23;;;;;;;8.13;2.10;;;16.00;99.90;;;;;;5094455;28;20173;-72
2023/08/01 08:07:49;;;;;;;9.43;1.97;;;16.00;99.90;;;;;;5094691;28;20139;-72
2023/08/01 08:10:15;;;;;;;11.50;2.27;;;16.10;99.90;;;;;;5094327;28;20144;-72
2023/08/01 08:12:40;;;;;;;9.33;2.30;;;16.10;99.90;;;;;;5093366;28;20102;-72
2023/08/01 08:15:07;;;;;;;8.73;1.97;;;16.10;99.90;;;;;;5093050;28;20044;-72
2023/08/01 08:17:32;;;;;;;9.40;2.20;;;16.10;99.90;;;;;;5094467;28;20127;-72
2023/08/01 08:19:58;;;;;;;12.17;2.90;;;16.20;99.90;;;;;;5094096;28;20185;-73
2023/08/01 08:22:24;;;;;;;13.83;2.40;;;16.30;99.90;;;;;;5094533;28;20116;-71
2023/08/01 08:24:50;;;;;;;7.87;2.03;;;16.40;99.90;;;;;;5093078;28;20113;-72
2023/08/01 08:27:15;;;;;;;7.83;2.17;;;16.50;99.90;;;;;;5093883;28;20133;-73
2023/08/01 08:29:41;;;;;;;6.83;2.00;;;16.60;99.90;;;;;;5094286;28;20482;-72
2023/08/01 08:32:07;;;;;;;9.50;1.97;;;16.70;99.90;;;;;;5076065;28;20055;-72
2023/08/01 08:34:33;;;;;;;8.53;1.97;;;16.70;99.90;;;;;;5093999;28;20051;-72
2023/08/01 08:36:58;;;;;;;7.57;2.37;;;16.80;99.90;;;;;;5092019;28;20040;-71
2023/08/01 08:39:24;;;;;;;8.33;2.03;;;17.00;99.90;;;;;;5093490;28;20426;-71
2023/08/01 08:41:52;;;;;;;8.80;2.17;;;17.20;99.90;;;;;;5093633;28;20044;-70
2023/08/01 08:44:24;;;;;;;10.47;2.30;;;17.40;99.90;;;;;;5093212;28;20044;-71
2023/08/01 08:46:53;;;;;;;9.07;2.63;;;17.60;99.90;;;;;;5091224;28;20040;-72
2023/08/01 08:49:21;;;;;;;7.30;2.03;;;17.80;99.90;;;;;;5091950;28;20101;-72
2023/08/01 08:51:48;;;;;;;7.93;2.13;;;17.90;99.90;;;;;;5089726;28;20067;-72
2023/08/01 08:54:16;;;;;;;7.93;2.20;;;17.80;99.90;;;;;;5093493;28;20392;-67
2023/08/01 08:56:42;;;;;;;7.70;3.03;;;17.80;99.90;;;;;;5093697;28;20044;-70
2023/08/01 08:59:11;;;;;;;6.53;1.60;;;17.70;99.90;;;;;;5093449;28;20071;-71
2023/08/01 09:01:38;;;;;;;7.07;1.60;;;17.80;99.90;;;;;;5093684;28;20040;-70
2023/08/01 09:04:04;;;;;;;7.07;1.90;;;17.90;99.90;;;;;;5093382;28;20122;-71
2023/08/01 09:06:37;;;;;;;5.87;1.60;;;17.80;99.90;;;;;;5093244;28;20154;-70
2023/08/01 09:09:10;;;;;;;5.87;1.67;;;17.70;99.90;;;;;;5093417;28;20052;-70
2023/08/01 09:11:49;;;;;;;4.97;1.70;;;17.50;99.90;;;;;;5093588;28;20472;-70
2023/08/01 09:14:16;;;;;;;6.63;1.90;;;17.30;99.90;;;;;;5093255;28;20044;-70
2023/08/01 09:16:43;;;;;;;4.80;1.70;;;17.20;99.90;;;;;;5093210;28;20080;-69
2023/08/01 09:19:09;;;;;;;9.57;2.50;;;17.30;99.90;;;;;;5092751;28;20044;-69
2023/08/01 09:21:39;;;;;;;6.70;1.87;;;17.50;99.90;;;;;;5093570;28;20040;-70
2023/08/01 09:24:12;;;;;;;8.00;1.97;;;17.70;99.90;;;;;;5093051;28;20055;-72
2023/08/01 09:26:38;;;;;;;9.90;2.37;;;18.00;99.90;;;;;;5093645;28;20052;-71
2023/08/01 09:29:04;;;;;;;8.77;2.17;;;18.20;99.90;;;;;;5092049;28;20453;-71
2023/08/01 09:31:35;;;;;;;14.97;2.73;;;18.40;99.90;;;;;;5092771;28;20075;-67
2023/08/01 09:34:05;;;;;;;7.60;2.20;;;18.30;99.90;;;;;;5092495;28;20115;-70
2023/08/01 09:36:31;;;;;;;11.30;2.40;;;18.10;99.90;;;;;;5093016;28;20040;-71
2023/08/01 09:39:02;;;;;;;5.30;1.93;;;17.90;99.90;;;;;;5092063;28;20121;-71
2023/08/01 09:41:32;;;;;;;7.80;2.37;;;17.70;99.90;;;;;;5091892;28;20473;-71
2023/08/01 09:43:58;;;;;;;6.70;2.80;;;17.60;99.90;;;;;;5093209;28;20131;-70
2023/08/01 09:46:24;;;;;;;9.80;2.20;;;17.60;99.90;;;;;;5091374;28;20052;-73
2023/08/01 09:48:50;;;;;;;9.37;2.50;;;17.70;99.90;;;;;;5091651;28;20503;-72
2023/08/01 09:51:18;;;;;;;9.43;2.23;;;17.80;99.90;;;;;;5090931;28;20044;-72
2023/08/01 09:53:48;;;;;;;7.33;2.90;;;18.00;99.90;;;;;;5092866;28;20055;-71
2023/08/01 09:56:17;;;;;;;8.27;2.50;;;18.00;99.90;;;;;;5091857;28;20092;-72
2023/08/01 09:58:44;;;;;;;10.17;2.60;;;18.10;99.90;;;;;;5093275;28;20040;-71
2023/08/01 10:01:10;;;;;;;10.90;2.77;;;18.00;99.90;;;;;;5092683;28;20051;-72
2023/08/01 10:03:36;;;;;;;10.50;2.40;;;18.10;99.90;;;;;;5091936;28;20052;-72
2023/08/01 10:06:03;;;;;;;7.80;2.50;;;18.10;99.90;;;;;;5092943;28;20048;-72
2023/08/01 10:08:32;;;;;;;9.47;2.33;;;18.10;99.90;;;;;;5092802;28;20412;-72
2023/08/01 10:10:57;;;;;;;8.47;2.30;;;18.10;99.90;;;;;;5091684;28;20464;-72
2023/08/01 10:13:26;;;;;;;11.03;3.13;;;18.10;99.90;;;;;;5092601;28;20052;-73
2023/08/01 10:15:53;;;;;;;12.63;3.47;;;18.00;99.90;;;;;;5092802;28;20059;-72
2023/08/01 10:18:19;;;;;;;9.93;2.13;;;18.10;99.90;;;;;;5092489;28;20051;-73
2023/08/01 10:20:45;;;;;;;8.60;2.13;;;18.20;99.90;;;;;;5092825;28;20040;-73
2023/08/01 10:23:12;;;;;;;9.33;2.23;;;18.20;99.90;;;;;;5091261;28;20055;-74
2023/08/01 10:25:39;;;;;;;10.23;2.23;;;18.20;99.90;;;;;;5091630;28;20040;-73
2023/08/01 10:28:06;;;;;;;5.53;1.77;;;18.30;99.90;;;;;;5092739;28;20055;-73
2023/08/01 10:30:31;;;;;;;6.77;2.30;;;18.50;99.90;;;;;;5096234;28;20044;-73
2023/08/01 10:32:59;;;;;;;12.77;2.27;;;18.60;99.90;;;;;;5095574;28;20183;-73
2023/08/01 10:35:37;;;;;;;8.50;2.10;;;18.60;99.90;;;;;;5096226;28;20058;-73
2023/08/01 10:38:08;;;;;;;6.87;1.67;;;18.70;99.90;;;;;;5096457;28;20083;-73
2023/08/01 10:40:41;;;;;;;10.17;2.20;;;18.70;99.90;;;;;;5096040;28;20059;-74
2023/08/01 10:43:20;;;;;;;5.90;1.50;;;18.80;99.90;;;;;;5096327;28;20056;-73
2023/08/01 10:45:45;;;;;;;8.87;1.90;;;18.70;99.90;;;;;;5095369;28;20047;-73
2023/08/01 10:48:12;;;;;;;5.23;1.30;;;18.70;99.90;;;;;;5095607;28;20043;-74
2023/08/01 10:50:38;;;;;;;8.37;2.00;;;18.70;99.90;;;;;;5096364;28;20070;-71
2023/08/01 10:53:06;;;;;;;7.90;2.17;;;18.80;99.90;;;;;;5094786;28;20449;-74
2023/08/01 10:55:45;;;;;;;7.50;1.70;;;18.80;99.90;;;;;;5094617;28;20040;-77
2023/08/01 10:58:11;;;;;;;8.70;1.93;;;18.80;99.90;;;;;;5095753;28;20518;-74
2023/08/01 11:00:38;;;;;;;9.10;1.83;;;18.70;99.90;;;;;;5095892;28;20087;-74
2023/08/01 11:03:04;;;;;;;8.03;1.80;;;18.70;99.90;;;;;;5094912;28;20040;-74
2023/08/01 11:05:29;;;;;;;6.37;1.90;;;18.80;99.90;;;;;;5094637;28;20102;-73
2023/08/01 11:08:01;;;;;;;5.23;1.23;;;18.80;99.90;;;;;;5094302;28;20059;-74
2023/08/01 11:10:28;;;;;;;5.37;2.00;;;18.90;99.90;;;;;;5095463;28;20047;-73
2023/08/01 11:12:54;;;;;;;8.57;2.07;;;18.80;99.90;;;;;;5094725;28;20062;-74
2023/08/01 11:15:21;;;;;;;10.93;1.90;;;18.80;99.90;;;;;;5094383;28;20426;-74
2023/08/01 11:17:54;;;;;;;8.47;2.23;;;18.90;99.90;;;;;;5095452;28;20040;-73
2023/08/01 11:20:22;;;;;;;6.43;1.70;;;18.90;99.90;;;;;;5094449;28;20055;-73
2023/08/01 11:22:57;;;;;;;8.63;2.40;;;19.10;99.90;;;;;;5095483;28;20118;-74
2023/08/01 11:25:45;;;;;;;9.85;2.05;;;19.10;99.90;;;;;;5094297;28;20057;-75
2023/08/01 11:28:14;;;;;;;6.67;1.70;;;19.20;99.90;;;;;;5095437;28;20052;-71
2023/08/01 11:30:40;;;;;;;7.70;1.80;;;19.20;99.90;;;;;;5095369;28;20048;-73
2023/08/01 11:33:22;;;;;;;9.53;2.17;;;19.30;99.90;;;;;;5095309;28;20127;-71
2023/08/01 11:36:01;;;;;;;6.90;1.60;;;19.30;99.90;;;;;;5095516;28;20131;-72
2023/08/01 11:38:29;;;;;;;5.60;1.60;;;19.40;99.90;;;;;;5093934;28;20059;-72
2023/08/01 11:40:57;;;;;;;5.60;1.77;;;19.50;99.90;;;;;;5093720;28;20076;-72
2023/08/01 11:43:23;;;;;;;8.00;2.30;;;19.40;99.90;;;;;;5093799;28;20094;-72
2023/08/01 11:45:58;;;;;;;7.80;2.03;;;19.40;99.90;;;;;;5095026;28;20076;-70
2023/08/01 11:48:24;;;;;;;8.67;1.67;;;19.20;99.90;;;;;;5094743;28;20109;-74
2023/08/01 11:50:58;;;;;;;8.60;1.90;;;19.20;99.90;;;;;;5094940;28;20500;-73
2023/08/01 11:53:23;;;;;;;6.43;1.90;;;19.10;99.90;;;;;;5094507;28;20523;-74
2023/08/01 11:55:53;;;;;;;9.47;2.10;;;19.00;99.90;;;;;;5094829;28;20090;-74
2023/08/01 11:58:41;;;;;;;4.57;1.50;;;19.00;99.90;;;;;;5094616;28;20039;-72
2023/08/01 12:01:12;;;;;;;6.10;1.93;;;19.00;99.90;;;;;;5093959;28;20056;-71
2023/08/01 12:03:51;;;;;;;5.47;1.80;;;19.10;99.90;;;;;;5094446;28;20040;-67
2023/08/01 12:06:19;;;;;;;6.30;1.60;;;19.10;99.90;;;;;;5094679;28;20044;-66
2023/08/01 12:08:47;;;;;;;8.83;2.47;;;19.10;99.90;;;;;;5092962;28;20404;-67
2023/08/01 12:11:22;;;;;;;6.63;1.67;;;19.00;99.90;;;;;;5094576;28;20047;-72
2023/08/01 12:13:59;;;;;;;10.07;3.70;;;19.10;99.90;;;;;;5094440;28;20130;-67
2023/08/01 12:16:25;;;;;;;10.13;2.40;;;19.10;99.90;;;;;;5094313;28;20063;-67
2023/08/01 12:18:51;;;;;;;10.07;2.60;;;19.00;99.90;;;;;;5094444;28;20480;-67
2023/08/01 12:21:17;;;;;;;10.27;2.63;;;18.90;99.90;;;;;;5076527;28;20492;-67
2023/08/01 12:23:42;;;;;;;8.90;2.30;;;18.90;99.90;;;;;;5094067;28;20039;-67
2023/08/01 12:26:08;;;;;;;5.20;1.60;;;18.80;99.90;;;;;;5094353;28;20123;-67
2023/08/01 12:28:35;;;;;;;14.00;2.83;;;18.80;99.90;;;;;;5093954;28;20051;-67
2023/08/01 12:31:00;;;;;;;10.63;2.03;;;18.80;99.90;;;;;;5094183;28;20044;-67
2023/08/01 12:33:26;;;;;;;7.17;2.60;;;18.80;99.90;;;;;;5093966;28;20160;-70
2023/08/01 12:35:52;;;;;;;8.53;2.20;;;18.80;99.90;;;;;;5093244;28;20044;-70
2023/08/01 12:38:17;;;;;;;9.43;2.20;;;18.80;99.90;;;;;;5094054;28;20048;-70
2023/08/01 12:40:43;;;;;;;10.50;2.70;;;18.80;99.90;;;;;;5093825;28;20043;-67